Time;durP1;ratioP1;P1;durP2;ratioP2;P2;SDS_P1;SDS_P2;PMS_P1;PMS_P2;Temp;Humidity;BMP_temperature;BMP_pressure;BME280_temperature;BME280_humidity;BME280_pressure;Samples;Min_cycle;Max_cycle;Signal;HPM_P1;HPM_P2
2022/04/09 00:00:09;;;;;;;;;;;;;;;5.60;66.78;95557.97;12774917;23;20850;-80
2022/04/09 00:05:37;;;;;;;;;;;;;;;5.66;67.22;95571.38;12810584;23;19974;-83
2022/04/09 00:10:58;;;;;;;;;;;;;;;5.74;67.17;95574.56;12756569;23;19920;-84
2022/04/09 00:16:20;;;;;;;;;;;;;;;5.77;67.71;95578.16;12797482;23;19928;-82
2022/04/09 00:21:41;;;;;;;;;;;;;;;5.84;67.35;95579.91;12797718;23;19928;-85
2022/04/09 00:27:09;;;;;;;;;;;;;;;5.76;67.09;95585.75;12779109;23;19921;-81
2022/04/09 00:32:30;;;;;;;;;;;;;;;5.71;67.13;95600.72;12756014;23;19924;-82
2022/04/09 00:37:52;;;;;;;;;;;;;;;5.67;66.71;95606.03;12776109;23;19912;-83
2022/04/09 00:43:14;;;;;;;;;;;;;;;5.65;66.73;95614.97;12776635;23;19927;-83
2022/04/09 00:48:37;;;;;;;;;;;;;;;5.55;66.69;95636.56;12800778;23;19939;-81
2022/04/09 00:54:02;;;;;;;;;;;;;;;5.49;67.20;95641.06;12797859;23;19904;-84
2022/04/09 00:59:23;;;;;;;;;;;;;;;5.41;66.62;95644.84;12816705;23;19912;-82
2022/04/09 01:04:45;;;;;;;;;;;;;;;5.32;66.89;95664.41;12830205;23;19948;-79
2022/04/09 01:10:18;;;;;;;;;;;;;;;5.21;66.50;95668.66;12800723;23;19952;-79
2022/04/09 01:15:40;;;;;;;;;;;;;;;5.01;66.75;95656.47;12897419;23;19930;-83
2022/04/09 01:21:03;;;;;;;;;;;;;;;4.80;66.38;95666.41;12831371;23;19908;-80
2022/04/09 01:26:25;;;;;;;;;;;;;;;4.74;67.10;95690.97;12897085;23;19926;-81
2022/04/09 01:31:46;;;;;;;;;;;;;;;4.50;66.86;95693.03;12877007;23;19910;-81
2022/04/09 01:37:09;;;;;;;;;;;;;;;4.37;67.54;95709.53;12876596;23;19975;-78
2022/04/09 01:42:32;;;;;;;;;;;;;;;4.37;67.58;95715.06;12841486;23;19904;-82
2022/04/09 01:47:54;;;;;;;;;;;;;;;4.34;67.15;95735.56;12796516;23;19928;-85
2022/04/09 01:53:16;;;;;;;;;;;;;;;4.27;67.73;95757.31;12816659;23;19905;-80
2022/04/09 01:58:39;;;;;;;;;;;;;;;4.21;67.81;95772.81;12816760;23;19925;-81
2022/04/09 02:04:00;;;;;;;;;;;;;;;4.24;67.71;95777.84;12796768;23;19904;-83
2022/04/09 02:09:22;;;;;;;;;;;;;;;4.32;67.62;95797.66;12798350;23;19927;-81
2022/04/09 02:26:47;;;;;;;;;;;;;;;4.36;67.10;95843.44;12845512;23;19927;-83
2022/04/09 02:32:18;;;;;;;;;;;;;;;4.29;67.36;95853.41;12834341;23;19915;-82
2022/04/09 02:43:46;;;;;;;;;;;;;;;4.32;67.31;95869.47;12831133;23;19904;-81
2022/04/09 02:49:08;;;;;;;;;;;;;;;4.23;66.79;95895.16;12820164;23;19911;-81
2022/04/09 02:54:32;;;;;;;;;;;;;;;4.14;67.37;95926.34;12819048;23;23729;-85
2022/04/09 02:59:55;;;;;;;;;;;;;;;4.18;67.67;95936.94;12819671;23;19924;-81
2022/04/09 03:11:18;;;;;;;;;;;;;;;4.19;67.45;95961.19;12860985;23;19904;-80
2022/04/09 03:16:39;;;;;;;;;;;;;;;4.15;67.01;95958.19;12881178;23;19908;-78
2022/04/09 03:22:02;;;;;;;;;;;;;;;4.08;67.53;95974.97;12859562;23;19911;-84
2022/04/09 03:27:25;;;;;;;;;;;;;;;4.09;67.11;95984.69;12857575;23;19955;-79
2022/04/09 03:32:53;;;;;;;;;;;;;;;4.01;67.95;96012.50;12863520;23;19911;-82
2022/04/09 03:38:20;;;;;;;;;;;;;;;4.03;67.49;96031.97;12881674;23;19911;-79
2022/04/09 03:43:51;;;;;;;;;;;;;;;4.12;67.86;96039.44;12819374;23;19964;31
2022/04/09 03:55:43;;;;;;;;;;;;;;;4.21;67.72;96085.59;12806352;23;19904;-81
2022/04/09 04:13:12;;;;;;;;;;;;;;;4.27;67.96;96155.06;12850600;23;19908;-79
2022/04/09 04:18:45;;;;;;;;;;;;;;;4.33;67.41;96168.53;12799754;23;19927;-77
2022/04/09 04:42:45;;;;;;;;;;;;;;;4.43;67.13;96256.88;12875627;23;20002;-78
2022/04/09 04:54:30;;;;;;;;;;;;;;;4.57;67.09;96280.69;12852259;23;19956;-78
2022/04/09 04:59:51;;;;;;;;;;;;;;;4.67;66.86;96304.78;12815333;23;19920;-78
2022/04/09 05:05:19;;;;;;;;;;;;;;;4.69;66.96;96324.25;12792889;23;19953;-82
2022/04/09 05:10:41;;;;;;;;;;;;;;;4.72;66.54;96340.38;12796366;23;19904;-80
2022/04/09 05:16:04;;;;;;;;;;;;;;;4.75;66.17;96338.50;12771795;23;19963;-80
2022/04/09 05:21:31;;;;;;;;;;;;;;;4.79;66.61;96361.59;12879745;23;19911;-83
2022/04/09 05:26:53;;;;;;;;;;;;;;;4.85;66.56;96367.53;12869210;23;19927;-84
2022/04/09 05:32:18;;;;;;;;;;;;;;;5.07;66.23;96367.56;12834803;23;19948;-83
2022/04/09 05:37:45;;;;;;;;;;;;;;;5.35;65.74;96386.03;12899239;23;19923;-84
2022/04/09 05:43:11;;;;;;;;;;;;;;;5.78;65.45;96399.84;12873174;23;19904;-82
2022/04/09 05:48:36;;;;;;;;;;;;;;;6.80;63.74;96436.69;12902551;23;19904;-79
2022/04/09 05:53:59;;;;;;;;;;;;;;;6.39;63.28;96447.34;12882809;23;19904;-82
2022/04/09 05:59:26;;;;;;;;;;;;;;;6.06;63.92;96458.41;12905022;23;19910;-79
2022/04/09 06:04:51;;;;;;;;;;;;;;;6.08;63.85;96481.44;12845886;23;19915;-81
2022/04/09 06:10:14;;;;;;;;;;;;;;;6.13;63.92;96497.00;12820785;23;19980;-83
2022/04/09 06:15:38;;;;;;;;;;;;;;;6.17;63.95;96518.69;12841069;23;19927;-82
2022/04/09 06:21:05;;;;;;;;;;;;;;;6.25;63.38;96541.38;12801737;23;19904;-84
2022/04/09 06:26:27;;;;;;;;;;;;;;;6.60;63.12;96539.50;12833788;23;19920;-83
2022/04/09 06:31:50;;;;;;;;;;;;;;;12.24;63.51;96557.94;12773746;23;19920;-84
2022/04/09 06:37:13;;;;;;;;;;;;;;;23.01;43.38;96588.91;12768774;23;19921;-85
2022/04/09 06:42:34;;;;;;;;;;;;;;;28.72;32.63;96602.22;12780885;23;19966;-84
2022/04/09 06:48:21;;;;;;;;;;;;;;;32.01;29.07;96596.50;12750448;23;20391;-85
2022/04/09 06:54:02;;;;;;;;;;;;;;;33.79;21.94;96597.53;12769128;23;20342;-85
2022/04/09 06:59:23;;;;;;;;;;;;;;;23.84;27.25;96594.53;12779601;23;19927;-86
2022/04/09 07:04:44;;;;;;;;;;;;;;;17.03;33.54;96616.00;12749746;23;19925;-85
2022/04/09 07:10:06;;;;;;;;;;;;;;;16.70;37.81;96614.50;12698921;23;19927;-83
2022/04/09 07:15:27;;;;;;;;;;;;;;;28.27;28.61;96611.03;12698157;23;19921;-85
2022/04/09 07:20:48;;;;;;;;;;;;;;;33.05;19.69;96619.34;12718300;23;19920;-84
2022/04/09 07:26:08;;;;;;;;;;;;;;;27.31;20.37;96623.50;12718142;23;19927;-84
2022/04/09 07:31:31;;;;;;;;;;;;;;;19.91;25.82;96637.06;12717621;23;19921;-86
2022/04/09 07:36:55;;;;;;;;;;;;;;;16.47;31.47;96672.28;12707569;23;19920;-84
2022/04/09 07:42:16;;;;;;;;;;;;;;;14.71;33.57;96671.81;12739423;23;19920;-84
2022/04/09 07:47:36;;;;;;;;;;;;;;;17.62;31.23;96668.16;12697967;23;20284;-83
2022/04/09 07:52:57;;;;;;;;;;;;;;;19.45;28.12;96680.94;12717862;23;19924;-84
2022/04/09 07:58:18;;;;;;;;;;;;;;;20.24;27.23;96700.50;12718438;23;20240;-84
2022/04/09 08:03:39;;;;;;;;;;;;;;;20.68;26.41;96697.53;12717812;23;19920;-84
2022/04/09 08:09:02;;;;;;;;;;;;;;;17.63;28.91;96703.44;12717153;23;20336;-85
2022/04/09 08:14:22;;;;;;;;;;;;;;;18.01;28.34;96710.00;12738714;23;19968;-85
2022/04/09 08:19:43;;;;;;;;;;;;;;;16.52;31.17;96710.47;12738830;23;20284;-83
2022/04/09 08:25:05;;;;;;;;;;;;;;;18.33;28.88;96708.53;12697743;23;19920;-85
2022/04/09 08:30:26;;;;;;;;;;;;;;;16.63;30.11;96722.72;12718276;23;19974;-85
2022/04/09 08:35:47;;;;;;;;;;;;;;;15.62;30.64;96721.88;12709229;23;19920;-88
2022/04/09 08:41:09;;;;;;;;;;;;;;;13.78;31.74;96728.03;12721407;23;20243;-77
2022/04/09 08:52:33;;;;;;;;;;;;;;;11.52;35.03;96725.97;12833522;23;19909;-85
2022/04/09 08:57:55;;;;;;;;;;;;;;;10.70;36.18;96751.97;12827534;23;20004;-85
2022/04/09 09:03:17;;;;;;;;;;;;;;;10.78;37.05;96771.91;12807065;23;19927;-85
2022/04/09 09:08:39;;;;;;;;;;;;;;;11.78;36.31;96771.22;12806345;23;19942;-83
2022/04/09 09:14:02;;;;;;;;;;;;;;;11.76;36.16;96769.75;12828294;23;19920;-83
2022/04/09 09:19:23;;;;;;;;;;;;;;;11.70;36.70;96783.44;12796155;23;19920;-78
2022/04/09 09:25:03;;;;;;;;;;;;;;;12.76;36.49;96793.16;12749453;23;19931;-79
2022/04/09 09:30:27;;;;;;;;;;;;;;;20.10;30.74;96783.19;12778035;23;19924;-81
2022/04/09 09:35:51;;;;;;;;;;;;;;;22.11;25.46;96809.63;12777268;23;19997;-80
2022/04/09 09:41:24;;;;;;;;;;;;;;;17.64;27.25;96821.28;12777776;23;19927;-79
2022/04/09 09:46:47;;;;;;;;;;;;;;;14.50;30.36;96835.31;12738219;23;19927;-79
2022/04/09 09:52:34;;;;;;;;;;;;;;;13.41;32.42;96833.13;12791307;23;20283;31
2022/04/09 09:57:55;;;;;;;;;;;;;;;13.81;32.38;96835.41;12703090;23;19972;-78
2022/04/09 10:03:16;;;;;;;;;;;;;;;13.99;32.08;96830.50;12687531;23;20288;-78
2022/04/09 10:08:37;;;;;;;;;;;;;;;14.13;32.33;96842.31;12663926;23;19992;-83
2022/04/09 10:13:58;;;;;;;;;;;;;;;15.04;30.77;96836.59;12675507;23;20320;-81
2022/04/09 10:19:19;;;;;;;;;;;;;;;15.86;31.46;96850.66;12655639;23;20233;-84
2022/04/09 10:24:41;;;;;;;;;;;;;;;16.42;29.27;96845.38;12673697;23;20379;-82
2022/04/09 10:30:02;;;;;;;;;;;;;;;15.38;29.76;96845.53;12673619;23;19967;-79
2022/04/09 10:35:23;;;;;;;;;;;;;;;13.71;31.52;96850.47;12691158;23;19920;-79
2022/04/09 10:40:50;;;;;;;;;;;;;;;12.65;33.62;96856.41;12718485;23;19928;-80
2022/04/09 10:46:11;;;;;;;;;;;;;;;12.05;34.63;96863.41;12715775;23;19956;-80
2022/04/09 10:51:52;;;;;;;;;;;;;;;11.98;35.30;96862.41;12680948;23;19925;-82
2022/04/09 10:57:20;;;;;;;;;;;;;;;16.14;32.10;96874.09;12758585;23;19924;-79
2022/04/09 11:02:41;;;;;;;;;;;;;;;15.43;31.26;96883.66;12740909;23;20414;-80
2022/04/09 11:08:06;;;;;;;;;;;;;;;14.38;32.61;96874.88;12731720;23;19941;-80
2022/04/09 11:13:30;;;;;;;;;;;;;;;15.52;32.49;96881.84;12707836;23;19920;-79
2022/04/09 11:18:51;;;;;;;;;;;;;;;17.38;30.25;96874.94;12736905;23;19921;-81
2022/04/09 11:24:13;;;;;;;;;;;;;;;18.63;29.10;96861.06;12737271;23;20071;-81
2022/04/09 11:29:37;;;;;;;;;;;;;;;18.84;25.02;96866.50;12696767;23;19932;-81
2022/04/09 11:34:58;;;;;;;;;;;;;;;17.27;27.58;96869.66;12737074;23;19921;-81
2022/04/09 11:40:19;;;;;;;;;;;;;;;16.08;28.81;96867.53;12676378;23;19946;-78
2022/04/09 11:45:39;;;;;;;;;;;;;;;15.33;29.72;96874.13;12678587;23;19921;-79
2022/04/09 11:51:01;;;;;;;;;;;;;;;15.89;29.19;96885.91;12736812;23;19921;-79
2022/04/09 11:56:22;;;;;;;;;;;;;;;14.50;30.12;96885.88;12703742;23;20312;-78
2022/04/09 12:01:46;;;;;;;;;;;;;;;14.87;30.45;96882.34;12760664;23;19928;-80
2022/04/09 12:07:06;;;;;;;;;;;;;;;14.66;30.58;96896.97;12770194;23;19921;-78
2022/04/09 12:12:28;;;;;;;;;;;;;;;14.32;30.92;96908.31;12786393;23;19921;-80
2022/04/09 12:17:49;;;;;;;;;;;;;;;13.74;31.12;96918.59;12783598;23;20221;-80
2022/04/09 12:23:09;;;;;;;;;;;;;;;14.10;31.28;96910.22;12764711;23;19904;-79
2022/04/09 12:28:32;;;;;;;;;;;;;;;13.43;31.47;96916.56;12722381;23;19926;-80
2022/04/09 12:34:00;;;;;;;;;;;;;;;12.83;31.95;96926.47;12781319;23;19909;-81
2022/04/09 12:39:24;;;;;;;;;;;;;;;12.12;33.52;96943.47;12760351;23;19969;-80
2022/04/09 12:44:45;;;;;;;;;;;;;;;11.66;35.19;96939.78;12779809;23;19968;-80
2022/04/09 12:50:18;;;;;;;;;;;;;;;11.00;37.69;96939.84;12776252;23;19920;-80
2022/04/09 12:55:41;;;;;;;;;;;;;;;11.01;39.63;96925.28;12736481;23;19928;-80
2022/04/09 13:01:03;;;;;;;;;;;;;;;11.83;39.65;96932.97;12732201;23;19920;-80
2022/04/09 13:06:23;;;;;;;;;;;;;;;12.05;39.35;96950.09;12771797;23;19968;-81
2022/04/09 13:11:45;;;;;;;;;;;;;;;11.57;38.97;96960.28;12741948;23;19912;-78
2022/04/09 13:17:07;;;;;;;;;;;;;;;10.56;39.59;96984.28;12710260;23;19953;-85
2022/04/09 13:22:28;;;;;;;;;;;;;;;9.89;42.19;96979.78;12712752;23;19917;-86
2022/04/09 13:27:52;;;;;;;;;;;;;;;9.80;43.62;96984.16;12713403;23;19980;-83
2022/04/09 13:33:13;;;;;;;;;;;;;;;11.33;44.40;96970.22;12813644;23;19936;-83
2022/04/09 13:38:36;;;;;;;;;;;;;;;12.70;41.57;96963.69;12813402;23;19920;-83
2022/04/09 13:43:58;;;;;;;;;;;;;;;13.01;39.85;96946.19;12833145;23;19944;-86
2022/04/09 13:49:19;;;;;;;;;;;;;;;12.67;39.89;96948.88;12811796;23;19955;-86
2022/04/09 13:54:41;;;;;;;;;;;;;;;12.07;40.31;96969.81;12832106;22;19943;-85
2022/04/09 14:00:04;;;;;;;;;;;;;;;11.71;40.99;96965.88;12894142;23;19920;-81
2022/04/09 14:05:27;;;;;;;;;;;;;;;11.71;41.13;96958.22;12838094;23;19920;-83
2022/04/09 14:11:08;;;;;;;;;;;;;;;11.65;40.31;96962.78;12875507;23;19920;-86
2022/04/09 14:16:29;;;;;;;;;;;;;;;11.43;39.68;96976.34;12879025;23;19916;-87
2022/04/09 14:21:50;;;;;;;;;;;;;;;11.62;39.87;96983.59;12858609;23;19920;-86
2022/04/09 14:27:14;;;;;;;;;;;;;;;11.92;39.33;96990.03;12859862;23;19923;-86
2022/04/09 14:32:48;;;;;;;;;;;;;;;11.77;39.60;96996.94;12905031;23;19956;-86
2022/04/09 14:38:09;;;;;;;;;;;;;;;11.49;40.29;96996.22;12857515;23;19904;-82
2022/04/09 14:43:33;;;;;;;;;;;;;;;11.35;39.88;96993.41;12882094;23;19911;-83
2022/04/09 14:48:55;;;;;;;;;;;;;;;11.77;40.45;97010.91;12881189;23;19904;-85
2022/04/09 14:54:16;;;;;;;;;;;;;;;12.01;39.53;97014.25;12900726;23;19915;-81
2022/04/09 14:59:40;;;;;;;;;;;;;;;11.91;39.01;97019.34;12881252;23;19911;-83
2022/04/09 15:05:06;;;;;;;;;;;;;;;11.58;39.01;97003.69;12821267;23;19926;-83
2022/04/09 15:10:33;;;;;;;;;;;;;;;11.08;39.11;97012.91;12793040;23;19923;-86
2022/04/09 15:16:01;;;;;;;;;;;;;;;10.83;39.33;97005.28;12791276;23;19927;-82
2022/04/09 15:21:23;;;;;;;;;;;;;;;10.51;39.34;97015.38;12817174;23;19904;-82
2022/04/09 15:26:44;;;;;;;;;;;;;;;10.31;40.00;97020.53;12768392;23;19924;-81
2022/04/09 15:32:14;;;;;;;;;;;;;;;10.35;40.93;97028.44;12796755;23;19921;-80
2022/04/09 15:37:37;;;;;;;;;;;;;;;9.70;42.66;97008.63;12819995;23;19911;-78
2022/04/09 15:43:00;;;;;;;;;;;;;;;9.22;43.52;97018.31;12816359;23;19928;-81
2022/04/09 15:48:21;;;;;;;;;;;;;;;8.83;43.59;97024.31;12796259;23;19951;-80
2022/04/09 15:53:43;;;;;;;;;;;;;;;8.68;45.11;97038.63;12783676;23;19904;-81
2022/04/09 15:59:05;;;;;;;;;;;;;;;8.49;45.11;97039.56;12778460;23;19964;-78
2022/04/09 16:04:27;;;;;;;;;;;;;;;8.45;45.84;97055.25;12824247;23;19920;-80
2022/04/09 16:09:48;;;;;;;;;;;;;;;8.45;46.39;97063.59;12826833;23;19944;-84
2022/04/09 16:21:28;;;;;;;;;;;;;;;8.40;46.39;97067.44;12856215;23;19904;-77
2022/04/09 16:26:49;;;;;;;;;;;;;;;8.36;46.92;97067.88;12824524;23;19927;-76
2022/04/09 16:32:09;;;;;;;;;;;;;;;8.24;46.99;97076.16;12758867;23;20279;-76
2022/04/09 16:37:32;;;;;;;;;;;;;;;8.20;47.58;97073.13;12780961;23;19955;-77
2022/04/09 16:42:53;;;;;;;;;;;;;;;8.10;48.19;97082.81;12766716;23;19920;-78
2022/04/09 16:48:15;;;;;;;;;;;;;;;7.97;48.35;97089.63;12822295;23;19921;-76
2022/04/09 16:53:35;;;;;;;;;;;;;;;7.93;49.09;97092.13;12825280;23;19936;-78
2022/04/09 16:58:57;;;;;;;;;;;;;;;7.93;48.32;97108.81;12816447;23;19912;-81
2022/04/09 17:04:18;;;;;;;;;;;;;;;7.79;48.84;97100.22;12785356;23;20021;-78
2022/04/09 17:09:38;;;;;;;;;;;;;;;7.65;48.69;97102.78;12730003;23;19927;-76
2022/04/09 17:14:59;;;;;;;;;;;;;;;7.54;48.83;97113.81;12717223;23;19928;-76
2022/04/09 17:20:20;;;;;;;;;;;;;;;7.45;49.21;97109.72;12717483;23;19921;-78
2022/04/09 17:25:42;;;;;;;;;;;;;;;7.33;49.47;97117.94;12717451;23;19921;-76
2022/04/09 17:31:06;;;;;;;;;;;;;;;7.24;49.17;97127.03;12698930;23;20236;-76
2022/04/09 17:36:27;;;;;;;;;;;;;;;7.07;49.81;97136.25;12738180;23;19932;-76
2022/04/09 17:41:48;;;;;;;;;;;;;;;6.95;51.05;97157.59;12719606;23;19904;-79
2022/04/09 17:47:09;;;;;;;;;;;;;;;6.89;51.02;97165.47;12714397;23;20247;-79
2022/04/09 17:52:32;;;;;;;;;;;;;;;6.70;51.96;97171.00;12780314;23;19920;-85
2022/04/09 17:57:53;;;;;;;;;;;;;;;6.69;51.42;97192.47;12754312;23;19920;-78
2022/04/09 18:03:14;;;;;;;;;;;;;;;6.89;51.13;97209.88;12697390;23;19920;-77
2022/04/09 18:08:35;;;;;;;;;;;;;;;7.05;51.70;97227.69;12717653;23;19920;-78
2022/04/09 18:13:56;;;;;;;;;;;;;;;7.10;52.88;97228.72;12704190;23;20244;-81
2022/04/09 18:19:17;;;;;;;;;;;;;;;7.00;52.58;97252.94;12758746;23;19917;-82
2022/04/09 18:24:37;;;;;;;;;;;;;;;7.07;53.27;97263.91;12739331;23;20402;-79
2022/04/09 18:29:58;;;;;;;;;;;;;;;7.10;53.29;97271.06;12708011;23;19921;-78
2022/04/09 18:35:19;;;;;;;;;;;;;;;7.13;53.13;97277.50;12729945;23;19908;-82
2022/04/09 18:40:42;;;;;;;;;;;;;;;6.97;53.11;97288.16;12760648;23;19912;-86
2022/04/09 18:46:04;;;;;;;;;;;;;;;6.77;54.10;97292.22;12778596;23;19936;-82
2022/04/09 18:51:26;;;;;;;;;;;;;;;6.60;54.13;97301.34;12860037;23;19931;-79
2022/04/09 18:56:50;;;;;;;;;;;;;;;6.31;54.40;97310.28;12820474;23;19960;-80
2022/04/09 19:02:13;;;;;;;;;;;;;;;6.18;54.53;97316.22;12754234;23;19920;-82
2022/04/09 19:07:34;;;;;;;;;;;;;;;6.10;54.76;97323.88;12726762;23;19924;-81
2022/04/09 19:12:55;;;;;;;;;;;;;;;5.99;55.12;97329.94;12775347;23;19904;-79
2022/04/09 19:18:16;;;;;;;;;;;;;;;5.99;55.32;97336.22;12820923;23;19967;-78
2022/04/09 19:23:37;;;;;;;;;;;;;;;6.00;55.41;97345.25;12829845;23;19936;-80
2022/04/09 19:29:00;;;;;;;;;;;;;;;5.94;54.94;97361.41;12768511;23;19943;-80
2022/04/09 19:34:22;;;;;;;;;;;;;;;5.83;55.04;97361.88;12793060;23;19927;-80
2022/04/09 19:39:43;;;;;;;;;;;;;;;5.66;55.13;97365.38;12771694;23;19904;-83
2022/04/09 19:45:05;;;;;;;;;;;;;;;5.60;55.21;97362.88;12797364;23;19927;-83
2022/04/09 19:50:26;;;;;;;;;;;;;;;5.43;55.98;97365.66;12808672;23;20387;-79
2022/04/09 19:55:48;;;;;;;;;;;;;;;5.33;56.70;97368.31;12782767;23;19928;-80
2022/04/09 20:01:09;;;;;;;;;;;;;;;5.25;56.52;97367.66;12784205;23;19924;-81
2022/04/09 20:06:31;;;;;;;;;;;;;;;5.19;56.65;97375.47;12771804;23;19927;-78
2022/04/09 20:11:51;;;;;;;;;;;;;;;5.22;57.27;97382.66;12803239;23;19927;-80
2022/04/09 20:17:12;;;;;;;;;;;;;;;5.31;56.95;97376.47;12736554;23;20328;-76
2022/04/09 20:22:33;;;;;;;;;;;;;;;5.39;57.46;97385.41;12780268;23;19940;-76
2022/04/09 20:27:54;;;;;;;;;;;;;;;5.42;57.57;97387.06;12759783;23;20275;-75
2022/04/09 20:33:15;;;;;;;;;;;;;;;5.36;57.84;97386.56;12780159;23;19967;-76
2022/04/09 20:38:35;;;;;;;;;;;;;;;5.32;58.25;97391.03;12800433;23;19943;-77
2022/04/09 20:43:56;;;;;;;;;;;;;;;5.25;57.94;97389.81;12758780;23;19929;-76
2022/04/09 20:49:18;;;;;;;;;;;;;;;5.18;58.75;97390.59;12779151;23;19931;-78
2022/04/09 21:00:41;;;;;;;;;;;;;;;4.97;58.84;97406.81;12877835;23;19920;-78
2022/04/09 21:06:04;;;;;;;;;;;;;;;4.82;59.66;97411.16;12811634;23;19926;-79
2022/04/09 21:11:25;;;;;;;;;;;;;;;4.66;60.33;97414.59;12776501;23;19931;-78
2022/04/09 21:16:46;;;;;;;;;;;;;;;4.59;59.88;97418.88;12776553;23;19927;-78
2022/04/09 21:22:07;;;;;;;;;;;;;;;4.49;61.05;97427.03;12793845;23;19927;-80
2022/04/09 21:27:28;;;;;;;;;;;;;;;4.39;62.25;97426.19;12775600;23;19924;-77
2022/04/09 21:32:48;;;;;;;;;;;;;;;4.28;61.59;97438.41;12747851;23;19920;-79
2022/04/09 21:38:09;;;;;;;;;;;;;;;4.18;61.70;97425.75;12808927;23;19908;-79
2022/04/09 21:43:30;;;;;;;;;;;;;;;4.08;61.84;97430.38;12815178;23;19909;-81
2022/04/09 21:48:51;;;;;;;;;;;;;;;4.02;62.03;97433.34;12857261;23;19904;-79
2022/04/09 21:54:12;;;;;;;;;;;;;;;3.94;62.82;97427.84;12816804;23;19927;-80
2022/04/09 21:59:33;;;;;;;;;;;;;;;3.90;62.88;97438.53;12824483;23;19927;-80
2022/04/09 22:04:54;;;;;;;;;;;;;;;3.87;62.53;97439.66;12816152;23;19908;-80
2022/04/09 22:16:17;;;;;;;;;;;;;;;3.81;62.91;97441.16;12917649;23;19907;-80
2022/04/09 22:21:38;;;;;;;;;;;;;;;3.74;62.96;97451.66;12878344;23;19930;-82
2022/04/09 22:27:20;;;;;;;;;;;;;;;3.71;63.55;97461.03;12887727;23;19911;-80
2022/04/09 22:32:42;;;;;;;;;;;;;;;3.70;63.34;97450.56;12857611;23;19904;-81
2022/04/09 22:38:03;;;;;;;;;;;;;;;3.66;63.97;97452.94;12836927;23;19912;-83
2022/04/09 22:43:25;;;;;;;;;;;;;;;3.62;63.35;97458.84;12861204;23;19935;-80
2022/04/09 22:48:46;;;;;;;;;;;;;;;3.57;63.67;97465.31;12903096;23;19923;-83
2022/04/09 22:54:08;;;;;;;;;;;;;;;3.52;63.86;97479.28;12882370;23;19903;-85
2022/04/09 22:59:31;;;;;;;;;;;;;;;3.50;64.16;97468.81;12856052;23;19915;-79
2022/04/09 23:10:55;;;;;;;;;;;;;;;3.42;63.79;97474.34;12891150;23;19924;-82
2022/04/09 23:16:17;;;;;;;;;;;;;;;3.42;64.10;97479.13;12881476;23;19911;-81
2022/04/09 23:21:39;;;;;;;;;;;;;;;3.42;64.69;97476.34;12855945;23;19924;-83
2022/04/09 23:27:00;;;;;;;;;;;;;;;3.34;64.92;97479.13;12860658;23;19904;-81
2022/04/09 23:32:22;;;;;;;;;;;;;;;3.35;64.53;97464.03;12901929;23;19927;-81
2022/04/09 23:37:44;;;;;;;;;;;;;;;3.36;65.23;97464.75;12901092;23;19904;-83
2022/04/09 23:43:06;;;;;;;;;;;;;;;3.36;65.21;97481.31;12855699;23;19935;-81
2022/04/09 23:48:28;;;;;;;;;;;;;;;3.34;64.77;97478.38;12880644;23;19920;-83
2022/04/09 23:53:49;;;;;;;;;;;;;;;3.33;64.96;97482.44;12859516;23;19911;-82
2022/04/09 23:59:12;;;;;;;;;;;;;;;3.28;65.12;97481.34;12881230;23;19904;-78
